Terminal Aerodrome Forecast
Issued by NWS

Home | Current Version | Previous Version | Text Only | Print | Product List | Glossary On
Versions: 1 2 3 4 5 6 7 8 9 10 11 12 13 14 15 16
000
FTUS44 KLIX 220543
TAFGPT
TAF
KGPT 220543Z 2206/2306 13010KT P6SM BKN150
     FM220800 15008KT 5SM BR BKN030
      TEMPO 2211/2214 2SM BR BKN010
     FM221400 17008KT 5SM BR VCSH OVC030
     FM221800 20009KT 2SM SHRA OVC025
     FM222100 22007KT P6SM BKN045=

USA.gov is the U.S. government's official web portal to all federal, state and local government web resources and services.